createdAt,value
2022-10-07T00:59:11.730Z,19.58
2022-10-07T01:00:13.790Z,19.55
2022-10-07T01:01:11.723Z,19.52
2022-10-07T01:02:11.741Z,19.52
2022-10-07T01:03:11.675Z,19.51
2022-10-07T01:04:11.654Z,19.49
2022-10-07T01:05:11.639Z,19.49
2022-10-07T01:06:11.649Z,19.51
2022-10-07T01:07:11.628Z,19.51
2022-10-07T01:08:11.618Z,19.51
2022-10-07T01:09:11.620Z,19.52
2022-10-07T01:10:11.624Z,19.54
2022-10-07T01:11:11.589Z,19.54
2022-10-07T01:12:11.589Z,19.54
2022-10-07T01:13:11.589Z,19.54
2022-10-07T01:14:11.560Z,19.54
2022-10-07T01:15:11.549Z,19.55
2022-10-07T01:16:11.531Z,19.55
2022-10-07T01:17:11.597Z,19.55
2022-10-07T01:18:11.520Z,19.55
2022-10-07T01:19:11.496Z,19.55
2022-10-07T01:20:11.475Z,19.55
2022-10-07T01:21:18.980Z,19.56
2022-10-07T01:22:18.982Z,19.55
2022-10-07T01:23:18.934Z,19.55
2022-10-07T01:24:18.928Z,19.55
2022-10-07T01:25:18.932Z,19.55
2022-10-07T01:26:18.921Z,19.55
2022-10-07T01:27:19.601Z,19.55
2022-10-07T01:28:18.995Z,19.56
2022-10-07T01:29:19.633Z,19.55
2022-10-07T01:30:18.860Z,19.56
2022-10-07T01:31:20.050Z,19.55
2022-10-07T01:32:18.868Z,19.56
2022-10-07T01:33:18.826Z,19.55
2022-10-07T01:34:12.157Z,19.56
2022-10-07T01:35:11.426Z,19.56
2022-10-07T01:36:11.308Z,19.58
2022-10-07T01:37:11.291Z,19.56
2022-10-07T01:38:11.302Z,19.58
2022-10-07T01:39:11.267Z,19.58
2022-10-07T01:40:11.279Z,19.58
2022-10-07T01:41:11.704Z,19.58
2022-10-07T01:42:11.681Z,19.56
2022-10-07T01:43:11.226Z,19.56
2022-10-07T01:44:11.249Z,19.56
2022-10-07T01:45:11.236Z,19.55
2022-10-07T01:46:11.271Z,19.56
2022-10-07T01:47:11.187Z,19.55
2022-10-07T01:48:11.196Z,19.56
2022-10-07T01:49:11.171Z,19.56
2022-10-07T01:50:11.156Z,19.55
2022-10-07T01:51:11.155Z,19.55
2022-10-07T01:52:11.144Z,19.55
2022-10-07T01:53:11.126Z,19.54
2022-10-07T01:54:11.103Z,19.54
2022-10-07T01:55:11.103Z,19.54
2022-10-07T01:56:12.947Z,19.54
2022-10-07T01:57:11.074Z,19.54
2022-10-07T01:58:11.069Z,19.52
2022-10-07T01:59:11.081Z,19.52
2022-10-07T02:00:11.045Z,19.51
2022-10-07T02:01:11.086Z,19.54
2022-10-07T02:02:11.025Z,19.52
2022-10-07T02:03:11.015Z,19.52
2022-10-07T02:04:11.071Z,19.51
2022-10-07T02:05:10.991Z,19.49
2022-10-07T02:06:10.984Z,19.52
2022-10-07T02:07:10.967Z,19.51
2022-10-07T02:08:10.951Z,19.52
2022-10-07T02:09:10.955Z,19.51
2022-10-07T02:10:10.931Z,19.51
2022-10-07T02:11:10.910Z,19.51
2022-10-07T02:12:10.930Z,19.51
2022-10-07T02:13:10.894Z,19.51
2022-10-07T02:14:10.918Z,19.51
2022-10-07T02:15:10.868Z,19.49
2022-10-07T02:16:10.931Z,19.49
2022-10-07T02:17:10.867Z,19.49
2022-10-07T02:18:10.834Z,19.49
2022-10-07T02:19:10.840Z,19.49
2022-10-07T02:20:10.816Z,19.49
2022-10-07T02:21:10.828Z,19.48
2022-10-07T02:22:10.802Z,19.49
2022-10-07T02:23:10.786Z,19.49
2022-10-07T02:24:10.771Z,19.48
2022-10-07T02:25:10.790Z,19.48
2022-10-07T02:26:10.765Z,19.48
2022-10-07T02:27:10.734Z,19.48
2022-10-07T02:28:10.822Z,19.47
2022-10-07T02:29:10.726Z,19.47
2022-10-07T02:30:10.731Z,19.47
2022-10-07T02:31:10.737Z,19.47
2022-10-07T02:32:10.683Z,19.47
2022-10-07T02:33:10.684Z,19.45
2022-10-07T02:34:10.668Z,19.47
2022-10-07T02:35:10.655Z,19.45
2022-10-07T02:36:10.677Z,19.45
2022-10-07T02:37:10.643Z,19.44
2022-10-07T02:38:11.275Z,19.41
2022-10-07T02:39:10.638Z,19.41
2022-10-07T02:40:12.503Z,19.44
2022-10-07T02:41:10.571Z,19.41
2022-10-07T02:42:10.586Z,19.41
2022-10-07T02:43:10.557Z,19.41
2022-10-07T02:44:10.571Z,19.41
2022-10-07T02:45:10.523Z,19.41
2022-10-07T02:46:10.568Z,19.40
2022-10-07T02:47:10.545Z,19.40
2022-10-07T02:48:10.513Z,19.40
2022-10-07T02:49:10.492Z,19.39
2022-10-07T02:50:10.512Z,19.39
2022-10-07T02:51:10.468Z,19.40
2022-10-07T02:52:10.486Z,19.39
2022-10-07T02:53:10.487Z,19.40
2022-10-07T02:54:10.439Z,19.39
2022-10-07T02:55:10.457Z,19.37
2022-10-07T02:56:10.456Z,19.37
2022-10-07T02:57:10.426Z,19.37
2022-10-07T02:58:10.423Z,19.37
2022-10-07T02:59:10.380Z,19.37
2022-10-07T03:00:11.415Z,19.36
2022-10-07T03:01:10.426Z,19.37
2022-10-07T03:02:10.343Z,19.36
2022-10-07T03:03:10.370Z,19.36
2022-10-07T03:04:10.344Z,19.36
2022-10-07T03:05:10.309Z,19.34
2022-10-07T03:06:10.331Z,19.34
2022-10-07T03:07:10.295Z,19.36
2022-10-07T03:08:10.334Z,19.33
2022-10-07T03:09:10.292Z,19.33
2022-10-07T03:10:10.285Z,19.34
2022-10-07T03:11:10.291Z,19.33
2022-10-07T03:12:10.273Z,19.33
2022-10-07T03:13:10.269Z,19.34
2022-10-07T03:14:10.219Z,19.33
2022-10-07T03:15:10.216Z,19.31
2022-10-07T03:16:10.281Z,19.31
2022-10-07T03:17:10.214Z,19.31
2022-10-07T03:18:10.192Z,19.31
2022-10-07T03:19:10.208Z,19.31
2022-10-07T03:20:10.162Z,19.31
2022-10-07T03:21:10.157Z,19.30
2022-10-07T03:22:10.167Z,19.30
2022-10-07T03:23:10.119Z,19.29
2022-10-07T03:24:10.134Z,19.30
2022-10-07T03:25:10.114Z,19.31
2022-10-07T03:26:10.099Z,19.29
2022-10-07T03:27:10.088Z,19.30
2022-10-07T03:28:10.175Z,19.29
2022-10-07T03:29:10.062Z,19.29
2022-10-07T03:30:10.050Z,19.29
2022-10-07T03:31:10.129Z,19.29
2022-10-07T03:32:10.067Z,19.27
2022-10-07T03:33:10.031Z,19.26
2022-10-07T03:34:10.030Z,19.27
2022-10-07T03:35:10.011Z,19.27
2022-10-07T03:36:09.995Z,19.29
2022-10-07T03:37:09.982Z,19.26
2022-10-07T03:38:09.996Z,19.26
2022-10-07T03:39:09.941Z,19.27
2022-10-07T03:40:09.963Z,19.26
2022-10-07T03:41:09.927Z,19.26
2022-10-07T03:42:09.942Z,19.26
2022-10-07T03:43:09.902Z,19.24
2022-10-07T03:44:09.913Z,19.26
2022-10-07T03:45:09.910Z,19.24
2022-10-07T03:46:09.939Z,19.24
2022-10-07T03:47:10.846Z,19.22
2022-10-07T03:48:09.876Z,19.24
2022-10-07T03:49:09.828Z,19.21
2022-10-07T03:50:09.858Z,19.22
2022-10-07T03:51:09.830Z,19.24
2022-10-07T03:52:09.806Z,19.22
2022-10-07T03:53:09.827Z,19.21
2022-10-07T03:54:09.794Z,19.21
2022-10-07T03:55:09.785Z,19.22
2022-10-07T03:56:18.292Z,19.19
2022-10-07T03:57:09.756Z,19.21
2022-10-07T03:58:09.754Z,19.21
2022-10-07T03:59:09.724Z,19.21
2022-10-07T04:00:09.713Z,19.19
2022-10-07T04:01:09.733Z,19.19
2022-10-07T04:02:09.753Z,19.19
2022-10-07T04:03:09.759Z,19.18
2022-10-07T04:04:09.694Z,19.18
2022-10-07T04:05:09.671Z,19.18
2022-10-07T04:06:09.654Z,19.19
2022-10-07T04:07:09.655Z,19.18
2022-10-07T04:08:09.637Z,19.18
2022-10-07T04:09:09.636Z,19.18
2022-10-07T04:10:09.601Z,19.16
2022-10-07T04:11:09.605Z,19.16
2022-10-07T04:12:09.603Z,19.18
2022-10-07T04:13:09.583Z,19.16
2022-10-07T04:14:09.613Z,19.15
2022-10-07T04:15:09.587Z,19.16
2022-10-07T04:16:09.592Z,19.16
2022-10-07T04:17:09.533Z,19.16
2022-10-07T04:18:09.566Z,19.15
2022-10-07T04:19:09.501Z,19.14
2022-10-07T04:20:09.493Z,19.14
2022-10-07T04:21:09.622Z,19.14
2022-10-07T04:22:09.482Z,19.12
2022-10-07T04:23:09.477Z,19.12
2022-10-07T04:24:09.464Z,19.12
2022-10-07T04:25:09.468Z,19.12
2022-10-07T04:26:09.480Z,19.11
2022-10-07T04:27:09.441Z,19.12
2022-10-07T04:28:09.482Z,19.12
2022-10-07T04:29:09.427Z,19.11
2022-10-07T04:30:09.392Z,19.12
2022-10-07T04:31:09.424Z,19.11
2022-10-07T04:32:09.398Z,19.11
2022-10-07T04:33:09.350Z,19.09
2022-10-07T04:34:09.349Z,19.11
2022-10-07T04:35:09.347Z,19.12
2022-10-07T04:36:09.347Z,19.09
2022-10-07T04:37:09.361Z,19.08
2022-10-07T04:38:09.330Z,19.09
2022-10-07T04:39:09.310Z,19.09
2022-10-07T04:40:09.318Z,19.08
2022-10-07T04:41:09.262Z,19.09
2022-10-07T04:42:09.272Z,19.08
2022-10-07T04:43:09.257Z,19.08
2022-10-07T04:44:09.288Z,19.08
2022-10-07T04:45:09.242Z,19.08
2022-10-07T04:46:09.243Z,19.07
2022-10-07T04:47:09.284Z,19.07
2022-10-07T04:48:09.223Z,19.07
2022-10-07T04:49:09.196Z,19.07
2022-10-07T04:50:09.179Z,19.07
2022-10-07T04:51:09.178Z,19.04
2022-10-07T04:52:09.190Z,19.02
2022-10-07T04:53:09.138Z,19.04
2022-10-07T04:54:09.129Z,19.04
2022-10-07T04:55:09.144Z,19.02
2022-10-07T04:56:09.114Z,19.04
2022-10-07T04:57:09.113Z,19.02
2022-10-07T04:58:09.151Z,19.02
2022-10-07T04:59:09.071Z,19.00
2022-10-07T05:00:09.101Z,19.02
2022-10-07T05:01:09.191Z,19.02
2022-10-07T05:02:09.110Z,19.00
2022-10-07T05:03:09.059Z,19.00
2022-10-07T05:04:09.026Z,18.99
2022-10-07T05:05:09.036Z,19.00
2022-10-07T05:06:09.011Z,18.99
2022-10-07T05:07:08.985Z,18.99
2022-10-07T05:08:09.611Z,18.99
2022-10-07T05:09:08.977Z,18.99
2022-10-07T05:10:08.971Z,19.00
2022-10-07T05:11:08.940Z,19.00
2022-10-07T05:12:08.938Z,18.99
2022-10-07T05:13:08.960Z,18.98
2022-10-07T05:14:08.932Z,18.98
2022-10-07T05:15:08.909Z,18.96
2022-10-07T05:16:08.920Z,18.98
2022-10-07T05:17:08.866Z,18.98
2022-10-07T05:18:08.914Z,18.98
2022-10-07T05:19:08.859Z,18.96
2022-10-07T05:20:08.881Z,18.96
2022-10-07T05:21:08.838Z,18.96
2022-10-07T05:22:08.839Z,18.95
2022-10-07T05:23:08.805Z,18.95
2022-10-07T05:24:08.828Z,18.95
2022-10-07T05:25:08.800Z,18.95
2022-10-07T05:26:08.806Z,18.95
2022-10-07T05:27:08.766Z,18.95
2022-10-07T05:28:08.826Z,18.93
2022-10-07T05:29:08.745Z,18.93
2022-10-07T05:30:08.744Z,18.93
2022-10-07T05:31:08.788Z,18.92
2022-10-07T05:32:08.795Z,18.92
2022-10-07T05:33:08.709Z,18.92
2022-10-07T05:34:08.729Z,18.90
2022-10-07T05:35:08.694Z,18.92
2022-10-07T05:36:08.731Z,18.92
2022-10-07T05:37:08.665Z,18.90
2022-10-07T05:38:08.691Z,18.92
2022-10-07T05:39:08.666Z,18.90
2022-10-07T05:40:08.657Z,18.92
2022-10-07T05:41:08.621Z,18.89
2022-10-07T05:42:08.605Z,18.89
2022-10-07T05:43:08.597Z,18.89
2022-10-07T05:44:08.598Z,18.89
2022-10-07T05:45:08.599Z,18.89
2022-10-07T05:46:08.676Z,18.89
2022-10-07T05:47:08.568Z,18.90
2022-10-07T05:48:08.558Z,18.89
2022-10-07T05:49:08.558Z,18.88
2022-10-07T05:50:08.543Z,18.89
2022-10-07T05:51:08.515Z,18.88
2022-10-07T05:52:08.497Z,18.86
2022-10-07T05:53:08.507Z,18.86
2022-10-07T05:54:08.496Z,18.86
2022-10-07T05:55:08.480Z,18.86
2022-10-07T05:56:08.479Z,18.86
2022-10-07T05:57:08.467Z,18.88
2022-10-07T05:58:08.467Z,18.86
2022-10-07T05:59:09.471Z,18.86
2022-10-07T06:00:08.422Z,18.86
2022-10-07T06:01:13.762Z,18.84
2022-10-07T06:02:09.483Z,18.84
2022-10-07T06:03:08.518Z,18.86
2022-10-07T06:04:08.391Z,18.83
2022-10-07T06:05:08.383Z,18.84
2022-10-07T06:06:08.344Z,18.84
2022-10-07T06:07:08.356Z,18.84
2022-10-07T06:08:08.338Z,18.81
2022-10-07T06:09:08.331Z,18.84
2022-10-07T06:10:08.294Z,18.81
2022-10-07T06:11:08.302Z,18.81
2022-10-07T06:12:08.314Z,18.83
2022-10-07T06:13:08.287Z,18.81
2022-10-07T06:14:08.272Z,18.83
2022-10-07T06:15:08.257Z,18.80
2022-10-07T06:16:08.296Z,18.81
2022-10-07T06:17:08.242Z,18.81
2022-10-07T06:18:08.232Z,18.80
2022-10-07T06:19:08.229Z,18.81
2022-10-07T06:20:08.217Z,18.80
2022-10-07T06:21:08.206Z,18.80
2022-10-07T06:22:08.211Z,18.80
2022-10-07T06:23:08.172Z,18.78
2022-10-07T06:24:08.173Z,18.78
2022-10-07T06:25:08.161Z,18.78
2022-10-07T06:26:08.153Z,18.78
2022-10-07T06:27:08.126Z,18.78
2022-10-07T06:28:08.967Z,18.77
2022-10-07T06:29:08.112Z,18.77
2022-10-07T06:30:08.094Z,18.75
2022-10-07T06:31:08.232Z,18.77
2022-10-07T06:32:08.072Z,18.77
2022-10-07T06:33:08.095Z,18.75
2022-10-07T06:34:08.044Z,18.75
2022-10-07T06:35:08.054Z,18.75
2022-10-07T06:36:08.040Z,18.77
2022-10-07T06:37:08.681Z,18.74
2022-10-07T06:38:08.023Z,18.74
2022-10-07T06:39:07.995Z,18.74
2022-10-07T06:40:07.968Z,18.74
2022-10-07T06:41:07.961Z,18.74
2022-10-07T06:42:07.959Z,18.74
2022-10-07T06:43:07.963Z,18.74
2022-10-07T06:44:07.940Z,18.74
2022-10-07T06:45:07.933Z,18.73
2022-10-07T06:46:07.974Z,18.74
2022-10-07T06:47:11.608Z,18.73
2022-10-07T06:48:07.912Z,18.73
2022-10-07T06:49:07.878Z,18.73
2022-10-07T06:50:07.875Z,18.71
2022-10-07T06:51:07.872Z,18.73
2022-10-07T06:52:07.851Z,18.71
2022-10-07T06:53:07.838Z,18.71
2022-10-07T06:54:07.834Z,18.70
2022-10-07T06:55:07.836Z,18.70
2022-10-07T06:56:07.798Z,18.71
2022-10-07T06:57:26.360Z,18.70
2022-10-07T06:58:11.689Z,18.70
2022-10-07T06:59:07.757Z,18.71
2022-10-07T07:00:07.748Z,18.68
2022-10-07T07:01:07.814Z,18.68
2022-10-07T07:02:07.738Z,18.68
2022-10-07T07:03:07.735Z,18.66
2022-10-07T07:04:07.713Z,18.68
2022-10-07T07:05:07.723Z,18.66
2022-10-07T07:06:07.689Z,18.68
2022-10-07T07:07:07.686Z,18.66
2022-10-07T07:08:07.686Z,18.66
2022-10-07T07:09:07.660Z,18.66
2022-10-07T07:10:07.651Z,18.65
2022-10-07T07:11:07.683Z,18.66
2022-10-07T07:12:07.615Z,18.65
2022-10-07T07:13:07.620Z,18.63
2022-10-07T07:14:07.616Z,18.65
2022-10-07T07:15:07.576Z,18.65
2022-10-07T07:16:07.616Z,18.63
2022-10-07T07:17:07.643Z,18.62
2022-10-07T07:18:07.585Z,18.63
2022-10-07T07:19:07.538Z,18.63
2022-10-07T07:20:07.527Z,18.63
2022-10-07T07:21:07.544Z,18.62
2022-10-07T07:22:07.504Z,18.62
2022-10-07T07:23:07.536Z,18.63
2022-10-07T07:24:07.495Z,18.62
2022-10-07T07:25:07.499Z,18.62
2022-10-07T07:26:07.456Z,18.62
2022-10-07T07:27:07.445Z,18.60
2022-10-07T07:28:07.538Z,18.62
2022-10-07T07:29:07.445Z,18.60
2022-10-07T07:30:07.417Z,18.62
2022-10-07T07:31:07.479Z,18.60
2022-10-07T07:32:07.404Z,18.60
2022-10-07T07:33:07.388Z,18.60
2022-10-07T07:34:07.405Z,18.59
2022-10-07T07:35:07.419Z,18.59
2022-10-07T07:36:07.346Z,18.59
2022-10-07T07:37:07.349Z,18.59
2022-10-07T07:38:07.367Z,18.58
2022-10-07T07:39:07.364Z,18.59
2022-10-07T07:40:07.333Z,18.60
2022-10-07T07:41:07.313Z,18.59
2022-10-07T07:42:07.323Z,18.59
2022-10-07T07:43:07.328Z,18.59
2022-10-07T07:44:07.273Z,18.59
2022-10-07T07:45:07.299Z,18.58
2022-10-07T07:46:07.292Z,18.59
2022-10-07T07:47:07.260Z,18.59
2022-10-07T07:48:07.450Z,18.59
2022-10-07T07:49:07.228Z,18.59
2022-10-07T07:50:07.239Z,18.59
2022-10-07T07:51:07.273Z,18.59
2022-10-07T07:52:07.182Z,18.58
2022-10-07T07:53:07.179Z,18.59
2022-10-07T07:54:07.159Z,18.58
2022-10-07T07:55:07.156Z,18.58
2022-10-07T07:56:07.149Z,18.58
2022-10-07T07:57:07.165Z,18.59
2022-10-07T07:58:11.080Z,18.59
2022-10-07T07:59:07.115Z,18.59
2022-10-07T08:00:07.117Z,18.59
2022-10-07T08:01:07.157Z,18.59
2022-10-07T08:02:07.202Z,18.59
2022-10-07T08:03:07.084Z,18.59
2022-10-07T08:04:07.057Z,18.60
2022-10-07T08:05:07.064Z,18.60
2022-10-07T08:06:07.069Z,18.62
2022-10-07T08:07:07.104Z,18.60
2022-10-07T08:08:07.439Z,18.62
2022-10-07T08:09:06.990Z,18.62
2022-10-07T08:10:07.026Z,18.62
2022-10-07T08:11:06.988Z,18.63
2022-10-07T08:12:06.984Z,18.63
2022-10-07T08:13:06.995Z,18.63
2022-10-07T08:14:06.931Z,18.63
2022-10-07T08:15:07.093Z,18.63
2022-10-07T08:16:06.954Z,18.63
2022-10-07T08:17:06.980Z,18.66
2022-10-07T08:18:07.186Z,18.68
2022-10-07T08:19:06.896Z,18.70
2022-10-07T08:20:06.948Z,18.66
2022-10-07T08:21:06.895Z,18.70
2022-10-07T08:22:06.864Z,18.70
2022-10-07T08:23:06.840Z,18.71
2022-10-07T08:24:06.868Z,18.71
2022-10-07T08:25:06.872Z,18.73
2022-10-07T08:26:06.813Z,18.73
2022-10-07T08:27:06.812Z,18.73
2022-10-07T08:28:06.821Z,18.77
2022-10-07T08:29:06.796Z,18.75
2022-10-07T08:30:06.776Z,18.75
2022-10-07T08:31:06.825Z,18.75
2022-10-07T08:32:06.745Z,18.77
2022-10-07T08:33:06.756Z,18.77
2022-10-07T08:34:06.759Z,18.78
2022-10-07T08:35:06.774Z,18.81
2022-10-07T08:36:06.689Z,18.81
2022-10-07T08:37:06.693Z,18.80
2022-10-07T08:38:06.678Z,18.81
2022-10-07T08:39:06.659Z,18.83
2022-10-07T08:40:06.671Z,18.84
2022-10-07T08:41:06.695Z,18.83
2022-10-07T08:42:06.681Z,18.84
2022-10-07T08:43:06.622Z,18.84
2022-10-07T08:44:08.131Z,18.86
2022-10-07T08:45:06.594Z,18.88
2022-10-07T08:46:06.669Z,18.88
2022-10-07T08:47:06.641Z,18.89
2022-10-07T08:48:06.558Z,18.90
2022-10-07T08:49:06.539Z,18.90
2022-10-07T08:50:06.547Z,18.90
2022-10-07T08:51:06.561Z,18.90
2022-10-07T08:52:06.525Z,18.93
2022-10-07T08:53:06.528Z,18.93
2022-10-07T08:54:06.485Z,18.95
2022-10-07T08:55:06.544Z,18.95
2022-10-07T08:56:06.521Z,18.96
2022-10-07T08:57:06.460Z,18.96
2022-10-07T08:58:06.492Z,18.98
2022-10-07T08:59:06.449Z,18.98
2022-10-07T09:00:06.451Z,18.99
2022-10-07T09:01:06.442Z,19.00
2022-10-07T09:02:06.417Z,18.99
2022-10-07T09:03:06.463Z,19.00
2022-10-07T09:04:06.457Z,19.02
2022-10-07T09:05:06.486Z,19.07
2022-10-07T09:06:06.524Z,19.04
2022-10-07T09:07:06.831Z,19.04
2022-10-07T09:08:06.370Z,19.08
2022-10-07T09:09:06.687Z,19.11
2022-10-07T09:10:07.970Z,19.09
2022-10-07T09:11:07.980Z,19.09
2022-10-07T09:12:06.305Z,19.12
2022-10-07T09:13:06.321Z,19.11
2022-10-07T09:14:06.293Z,19.14
2022-10-07T09:15:06.583Z,19.14
2022-10-07T09:16:06.315Z,19.15
2022-10-07T09:17:06.270Z,19.16
2022-10-07T09:18:06.233Z,19.18
2022-10-07T09:19:06.240Z,19.16
2022-10-07T09:20:06.229Z,19.19
2022-10-07T09:21:06.875Z,19.21
2022-10-07T09:22:06.218Z,19.21
2022-10-07T09:23:06.366Z,19.22
2022-10-07T09:24:06.169Z,19.22
2022-10-07T09:25:09.047Z,19.24
2022-10-07T09:26:07.135Z,19.27
2022-10-07T09:27:06.181Z,19.27
2022-10-07T09:28:06.203Z,19.29
2022-10-07T09:29:06.136Z,19.27
2022-10-07T09:30:06.128Z,19.30
2022-10-07T09:31:06.190Z,19.30
2022-10-07T09:32:06.128Z,19.31
2022-10-07T09:33:06.076Z,19.33
2022-10-07T09:34:06.079Z,19.33
2022-10-07T09:35:06.140Z,19.36
2022-10-07T09:36:06.046Z,19.36
2022-10-07T09:37:06.467Z,19.37
2022-10-07T09:38:06.013Z,19.39
2022-10-07T09:39:06.023Z,19.37
2022-10-07T09:40:06.005Z,19.37
2022-10-07T09:41:06.006Z,19.39
2022-10-07T09:42:05.974Z,19.39
2022-10-07T09:43:05.967Z,19.36
2022-10-07T09:44:05.959Z,19.37
2022-10-07T09:45:05.977Z,19.37
2022-10-07T09:46:06.015Z,19.37
2022-10-07T09:47:05.946Z,19.36
2022-10-07T09:48:05.922Z,19.36
2022-10-07T09:49:05.912Z,19.37
2022-10-07T09:50:05.884Z,19.36
2022-10-07T09:51:05.873Z,19.36
2022-10-07T09:52:05.864Z,19.37
2022-10-07T09:53:05.860Z,19.36
2022-10-07T09:54:05.858Z,19.36
2022-10-07T09:55:05.887Z,19.36
2022-10-07T09:56:05.826Z,19.36
2022-10-07T09:57:05.816Z,19.36
2022-10-07T09:58:05.836Z,19.36
2022-10-07T09:59:05.809Z,19.36
2022-10-07T10:00:05.782Z,19.36
2022-10-07T10:01:05.763Z,19.36
2022-10-07T10:02:05.835Z,19.37
2022-10-07T10:03:06.306Z,19.37
2022-10-07T10:04:05.738Z,19.39
2022-10-07T10:05:05.742Z,19.40
2022-10-07T10:06:05.702Z,19.41
2022-10-07T10:07:05.733Z,19.40
2022-10-07T10:08:05.723Z,19.44
2022-10-07T10:09:05.713Z,19.45
2022-10-07T10:10:05.675Z,19.45
2022-10-07T10:11:05.655Z,19.45
2022-10-07T10:12:05.641Z,19.48
2022-10-07T10:13:05.619Z,19.47
2022-10-07T10:14:05.645Z,19.48
2022-10-07T10:15:05.614Z,19.51
2022-10-07T10:16:05.677Z,19.49
2022-10-07T10:17:06.797Z,19.51
2022-10-07T10:18:05.586Z,19.51
2022-10-07T10:19:05.551Z,19.52
2022-10-07T10:20:05.584Z,19.52
2022-10-07T10:21:05.582Z,19.55
2022-10-07T10:22:05.567Z,19.55
2022-10-07T10:23:05.593Z,19.56
2022-10-07T10:24:05.508Z,19.56
2022-10-07T10:25:05.521Z,19.59
2022-10-07T10:26:05.516Z,19.62
2022-10-07T10:27:05.500Z,19.62
2022-10-07T10:28:05.540Z,19.62
2022-10-07T10:29:05.461Z,19.62
2022-10-07T10:30:05.440Z,19.63
2022-10-07T10:31:05.929Z,19.64
2022-10-07T10:32:05.420Z,19.66
2022-10-07T10:33:05.440Z,19.64
2022-10-07T10:34:05.409Z,19.66
2022-10-07T10:38:48.636Z,19.71
2022-10-07T10:39:48.623Z,19.73
2022-10-07T10:40:48.603Z,19.71
2022-10-07T10:41:48.579Z,19.73
2022-10-07T10:42:48.756Z,19.74
2022-10-07T10:43:48.573Z,19.74
2022-10-07T10:44:48.557Z,19.76
2022-10-07T10:45:48.847Z,19.76
2022-10-07T10:46:51.966Z,19.77
2022-10-07T10:47:48.520Z,19.76
2022-10-07T10:48:48.512Z,19.79
2022-10-07T10:49:48.516Z,19.79
2022-10-07T10:50:48.524Z,19.81
2022-10-07T10:51:48.478Z,19.82
2022-10-07T10:52:48.481Z,19.82
2022-10-07T10:53:48.469Z,19.82
2022-10-07T10:54:48.450Z,19.84
2022-10-07T10:55:48.448Z,19.86
2022-10-07T10:56:48.427Z,19.86
2022-10-07T10:57:48.422Z,19.86
2022-10-07T10:58:48.402Z,19.85
2022-10-07T10:59:48.403Z,19.86
2022-10-07T11:00:48.383Z,19.86
2022-10-07T11:01:48.432Z,19.88
2022-10-07T11:02:48.818Z,19.89
2022-10-07T11:03:48.361Z,19.89
2022-10-07T11:04:48.331Z,19.91
2022-10-07T11:05:48.341Z,19.92
2022-10-07T11:06:48.328Z,19.92
2022-10-07T11:07:48.322Z,19.94
2022-10-07T11:08:48.289Z,19.95
2022-10-07T11:09:48.277Z,19.95
2022-10-07T11:10:48.275Z,19.95
2022-10-07T11:11:48.675Z,19.96
2022-10-07T11:12:48.523Z,19.96
2022-10-07T11:13:48.236Z,19.99
2022-10-07T11:14:48.225Z,19.99
2022-10-07T11:15:48.276Z,20.00
2022-10-07T11:16:48.207Z,20.00
2022-10-07T11:17:48.188Z,20.00
2022-10-07T11:18:48.176Z,20.02
2022-10-07T11:19:48.175Z,20.03
2022-10-07T11:20:48.193Z,20.04
2022-10-07T11:21:48.177Z,20.04
2022-10-07T11:22:48.540Z,20.06
2022-10-07T11:23:48.125Z,20.06
2022-10-07T11:24:48.131Z,20.06
2022-10-07T11:25:48.151Z,20.07
2022-10-07T11:26:48.110Z,20.07
2022-10-07T11:27:48.119Z,20.09
2022-10-07T11:28:48.079Z,20.09
2022-10-07T11:29:48.081Z,20.10
2022-10-07T11:30:48.050Z,20.10
2022-10-07T11:31:48.086Z,20.10
2022-10-07T11:32:48.367Z,20.10
2022-10-07T11:33:48.027Z,20.10
2022-10-07T11:34:52.206Z,20.11
2022-10-07T11:35:48.997Z,20.11
2022-10-07T11:36:47.991Z,20.11
2022-10-07T11:37:48.188Z,20.13
2022-10-07T11:38:47.955Z,20.14
2022-10-07T11:39:47.982Z,20.14
2022-10-07T11:40:48.985Z,20.14
2022-10-07T11:41:47.961Z,20.14
2022-10-07T11:42:48.450Z,20.16
2022-10-07T11:43:47.929Z,20.14
2022-10-07T11:44:47.910Z,20.16
2022-10-07T11:45:47.897Z,20.18
2022-10-07T11:46:47.925Z,20.16
2022-10-07T11:47:47.889Z,20.18
2022-10-07T11:48:47.894Z,20.16
2022-10-07T11:49:47.857Z,20.18
2022-10-07T11:50:47.825Z,20.19
2022-10-07T11:51:47.824Z,20.19
2022-10-07T11:52:48.167Z,20.19
2022-10-07T11:53:47.924Z,20.21
2022-10-07T11:54:47.800Z,20.19
2022-10-07T11:55:50.416Z,20.21
2022-10-07T11:56:48.788Z,20.19
2022-10-07T11:57:47.768Z,20.21
2022-10-07T11:58:47.746Z,20.22
2022-10-07T11:59:47.769Z,20.22
2022-10-07T12:00:47.758Z,20.22
2022-10-07T12:01:47.760Z,20.22
2022-10-07T12:02:48.049Z,20.22
2022-10-07T12:03:47.969Z,20.24
2022-10-07T12:04:47.709Z,20.24
2022-10-07T12:05:47.709Z,20.24
2022-10-07T12:06:47.664Z,20.24
2022-10-07T12:07:47.644Z,20.24
2022-10-07T12:08:47.647Z,20.22
2022-10-07T12:09:47.653Z,20.24
2022-10-07T12:10:47.614Z,20.21
2022-10-07T12:11:47.618Z,20.22
2022-10-07T12:12:48.213Z,20.22
2022-10-07T12:13:48.051Z,20.22
2022-10-07T12:14:47.563Z,20.21
2022-10-07T12:15:47.583Z,20.21
2022-10-07T12:16:47.569Z,20.19
2022-10-07T12:17:47.558Z,20.19
2022-10-07T12:18:47.537Z,20.18
2022-10-07T12:19:47.535Z,20.18
2022-10-07T12:20:47.542Z,20.18
2022-10-07T12:21:47.513Z,20.16
2022-10-07T12:22:47.810Z,20.18
2022-10-07T12:23:47.523Z,20.16
2022-10-07T12:24:47.466Z,20.16
2022-10-07T12:25:47.498Z,20.14
2022-10-07T12:26:47.484Z,20.13
2022-10-07T12:27:47.591Z,20.13
2022-10-07T12:28:47.468Z,20.13
2022-10-07T12:29:47.413Z,20.13
2022-10-07T12:30:47.393Z,20.11
2022-10-07T12:31:47.451Z,20.11
2022-10-07T12:32:48.035Z,20.11
2022-10-07T12:33:47.407Z,20.10
2022-10-07T12:34:47.448Z,20.10
2022-10-07T12:35:51.490Z,20.10
2022-10-07T12:36:48.340Z,20.09
2022-10-07T12:37:47.348Z,20.09
2022-10-07T12:38:47.425Z,20.09
2022-10-07T12:39:47.322Z,20.09
2022-10-07T12:40:47.293Z,20.07
2022-10-07T12:41:47.295Z,20.07
2022-10-07T12:42:47.646Z,20.07
2022-10-07T12:43:47.265Z,20.06
2022-10-07T12:44:47.259Z,20.07
2022-10-07T12:45:47.320Z,20.06
2022-10-07T12:46:47.235Z,20.04
2022-10-07T12:47:47.274Z,20.04
2022-10-07T12:48:47.255Z,20.03
2022-10-07T12:49:47.285Z,20.03
2022-10-07T12:50:47.190Z,20.03
2022-10-07T12:51:47.311Z,20.00
2022-10-07T12:52:47.587Z,19.99
2022-10-07T12:53:47.164Z,20.00
2022-10-07T12:54:47.156Z,19.99
2022-10-07T12:55:47.187Z,19.96
2022-10-07T12:56:47.173Z,19.96
2022-10-07T12:57:47.137Z,19.95
2022-10-07T12:58:47.116Z,19.95
2022-10-07T12:59:47.091Z,19.94
2022-10-07T13:00:47.179Z,19.94
2022-10-07T13:01:47.395Z,19.92
2022-10-07T13:02:47.374Z,19.91
2022-10-07T13:03:47.067Z,19.89
2022-10-07T13:04:47.056Z,19.91
2022-10-07T13:05:47.031Z,19.89
2022-10-07T13:06:47.064Z,19.88
2022-10-07T13:07:47.021Z,19.88
2022-10-07T13:08:47.111Z,19.86
2022-10-07T13:09:46.984Z,19.85
2022-10-07T13:10:47.081Z,19.86
2022-10-07T13:11:47.974Z,19.85
2022-10-07T13:12:47.470Z,19.85
2022-10-07T13:13:46.983Z,19.84
2022-10-07T13:14:47.056Z,19.84
2022-10-07T13:15:46.924Z,19.84
2022-10-07T13:16:46.954Z,19.84
2022-10-07T13:17:46.900Z,19.81
2022-10-07T13:18:46.923Z,19.81
2022-10-07T13:19:46.974Z,19.81
2022-10-07T13:20:46.869Z,19.79
2022-10-07T13:21:46.866Z,19.79
2022-10-07T13:22:47.201Z,19.79
2022-10-07T13:23:46.864Z,19.77
2022-10-07T13:24:46.834Z,19.77
2022-10-07T13:25:46.834Z,19.76
2022-10-07T13:26:46.824Z,19.76
2022-10-07T13:27:46.967Z,19.76
2022-10-07T13:28:46.821Z,19.74
2022-10-07T13:29:46.771Z,19.74
2022-10-07T13:30:46.768Z,19.74
2022-10-07T13:31:46.874Z,19.74
2022-10-07T13:32:47.158Z,19.71
2022-10-07T13:33:46.758Z,19.70
2022-10-07T13:34:46.949Z,19.71
2022-10-07T13:35:46.734Z,19.70
2022-10-07T13:36:46.689Z,19.70
2022-10-07T13:37:46.736Z,19.69
2022-10-07T13:38:46.667Z,19.69
2022-10-07T13:39:46.669Z,19.69
2022-10-07T13:40:46.665Z,19.69
2022-10-07T13:41:47.463Z,19.69
2022-10-07T13:42:46.885Z,19.69
2022-10-07T13:43:46.634Z,19.67
2022-10-07T13:44:46.609Z,19.67
2022-10-07T13:45:46.720Z,19.66
2022-10-07T13:46:46.602Z,19.66
2022-10-07T13:47:46.631Z,19.66
2022-10-07T13:48:46.560Z,19.67
2022-10-07T13:49:46.607Z,19.64
2022-10-07T13:50:46.550Z,19.63
2022-10-07T13:51:46.542Z,19.64
2022-10-07T13:52:47.063Z,19.64
2022-10-07T13:53:46.507Z,19.63
2022-10-07T13:54:46.501Z,19.64